Time;durP1;ratioP1;P1;durP2;ratioP2;P2;SDS_P1;SDS_P2;PMS_P1;PMS_P2;Temp;Humidity;BMP_temperature;BMP_pressure;BME280_temperature;BME280_humidity;BME280_pressure;Samples;Min_cycle;Max_cycle;Signal;HPM_P1;HPM_P2
2022/07/15 00:01:37;;;;;;;10.88;4.85;;;;;;;25.15;58.82;100910.09;4957134;29;20023;-75
2022/07/15 00:04:23;;;;;;;8.05;4.60;;;;;;;25.07;60.02;100911.66;4955778;28;20023;-75
2022/07/15 00:07:09;;;;;;;12.73;4.30;;;;;;;25.49;58.06;100908.47;4956218;29;20046;-75
2022/07/15 00:13:01;;;;;;;6.85;4.00;;;;;;;24.77;61.75;100906.72;4956136;29;20034;-75
2022/07/15 00:15:46;;;;;;;6.18;4.00;;;;;;;25.12;60.30;100915.69;4930143;29;20027;-75
2022/07/15 00:18:32;;;;;;;9.43;4.10;;;;;;;24.96;60.44;100911.59;4956209;29;20370;-75
2022/07/15 00:21:18;;;;;;;7.93;3.70;;;;;;;24.81;60.37;100910.03;4956712;29;20034;-74
2022/07/15 00:24:04;;;;;;;4.82;3.50;;;;;;;24.76;60.27;100909.50;4956085;28;20106;-74
2022/07/15 00:26:50;;;;;;;7.60;3.67;;;;;;;24.88;60.48;100909.47;4957118;29;20493;-74
2022/07/15 00:29:35;;;;;;;3.72;3.17;;;;;;;24.88;60.67;100906.81;4954868;29;20531;-73
2022/07/15 00:32:21;;;;;;;6.88;3.53;;;;;;;25.09;59.25;100907.03;4956983;29;20027;-74
2022/07/15 00:35:07;;;;;;;5.97;3.47;;;;;;;24.73;61.81;100899.00;4956844;28;20061;-73
2022/07/15 00:37:53;;;;;;;4.32;3.53;;;;;;;24.50;62.49;100903.31;4957975;29;20041;-74
2022/07/15 00:40:44;;;;;;;5.78;3.50;;;;;;;24.77;61.89;100900.50;4942725;29;20027;-75
2022/07/15 00:43:30;;;;;;;5.80;3.88;;;;;;;24.72;62.42;100900.84;4956608;28;20042;-75
2022/07/15 00:46:18;;;;;;;5.38;3.65;;;;;;;24.82;62.20;100901.00;4956262;29;20027;-75
2022/07/15 00:49:06;;;;;;;4.15;3.42;;;;;;;24.78;62.16;100903.06;4956016;29;20091;-74
2022/07/15 00:51:55;;;;;;;5.82;3.35;;;;;;;24.79;62.29;100903.94;4956283;29;20035;-74
2022/07/15 00:54:42;;;;;;;6.53;3.50;;;;;;;24.72;62.77;100892.81;4954978;28;20170;-74
2022/07/15 00:57:29;;;;;;;4.45;3.28;;;;;;;24.74;62.90;100892.66;4955610;29;20031;-74
2022/07/15 01:00:15;;;;;;;5.65;3.20;;;;;;;24.69;63.53;100895.72;4955567;29;20106;-74
2022/07/15 01:03:01;;;;;;;5.65;3.13;;;;;;;24.59;64.50;100896.47;4955552;29;20027;-74
2022/07/15 01:05:48;;;;;;;5.68;3.28;;;;;;;24.19;67.48;100909.13;4955408;29;20106;-75
2022/07/15 01:08:33;;;;;;;9.18;3.50;;;;;;;24.55;65.64;100897.63;4956654;29;20115;-75
2022/07/15 01:11:19;;;;;;;6.00;3.10;;;;;;;24.40;66.36;100896.06;4961022;29;20524;-74
2022/07/15 01:14:05;;;;;;;5.85;3.10;;;;;;;24.26;67.89;100899.72;4956302;28;20035;-75
2022/07/15 01:16:52;;;;;;;4.00;3.17;;;;;;;24.12;68.54;100907.88;4955345;29;20466;-74
2022/07/15 01:19:38;;;;;;;5.78;3.60;;;;;;;23.94;70.74;100906.47;4941982;29;20031;-74
2022/07/15 01:22:24;;;;;;;4.43;3.20;;;;;;;23.93;71.28;100901.22;4955110;29;20074;-74
2022/07/15 01:25:09;;;;;;;4.30;3.40;;;;;;;23.85;72.54;100896.38;4955680;28;20023;-75
2022/07/15 01:27:55;;;;;;;4.93;3.35;;;;;;;23.91;71.68;100908.47;4922992;29;20466;-75
2022/07/15 01:30:41;;;;;;;5.20;3.40;;;;;;;24.01;72.05;100905.09;4936863;29;20119;-75
2022/07/15 01:33:27;;;;;;;4.78;3.40;;;;;;;23.88;72.12;100895.31;4936778;29;20043;-75
2022/07/15 01:36:12;;;;;;;4.13;3.28;;;;;;;23.79;72.49;100896.78;4936555;29;20027;-74
2022/07/15 01:38:58;;;;;;;5.63;3.63;;;;;;;23.60;74.44;100893.69;4940228;29;20106;-75
2022/07/15 01:41:44;;;;;;;6.63;3.55;;;;;;;23.70;74.67;100893.91;4939234;29;20062;-74
2022/07/15 01:44:30;;;;;;;6.70;3.40;;;;;;;23.80;73.11;100893.16;4940340;29;20045;-75
2022/07/15 01:47:15;;;;;;;6.22;3.20;;;;;;;23.91;72.70;100892.41;4940241;29;20369;-74
2022/07/15 01:50:01;;;;;;;7.72;3.65;;;;;;;23.68;74.44;100890.47;4940376;29;20107;-76
2022/07/15 01:52:47;;;;;;;5.63;3.50;;;;;;;23.70;73.71;100886.72;4939324;29;20023;-74
2022/07/15 01:55:33;;;;;;;6.15;3.03;;;;;;;23.70;74.21;100893.91;4926566;29;20040;-74
2022/07/15 01:58:19;;;;;;;8.10;3.10;;;;;;;23.64;74.58;100888.97;4940307;29;20027;-75
2022/07/15 02:01:06;;;;;;;5.75;2.97;;;;;;;23.55;76.34;100879.75;4939619;29;20074;-74
2022/07/15 02:03:52;;;;;;;4.28;2.75;;;;;;;23.52;75.37;100884.44;4938970;29;20030;-75
2022/07/15 02:06:38;;;;;;;5.57;3.40;;;;;;;23.59;75.73;100886.63;4940031;29;20039;-74
2022/07/15 02:09:24;;;;;;;5.88;3.30;;;;;;;23.39;76.28;100882.59;4939720;29;20046;-74
2022/07/15 02:12:10;;;;;;;5.65;2.90;;;;;;;23.68;75.42;100882.44;4939393;29;20054;-74
2022/07/15 02:14:56;;;;;;;4.45;2.72;;;;;;;23.47;76.41;100878.56;4925280;29;20381;-74
2022/07/15 02:17:41;;;;;;;4.20;2.75;;;;;;;23.28;77.79;100877.13;4938368;29;20035;-74
2022/07/15 02:20:28;;;;;;;3.78;2.67;;;;;;;23.24;78.08;100883.63;4939261;29;20031;-75
2022/07/15 02:23:14;;;;;;;5.40;2.83;;;;;;;23.21;78.69;100881.19;4925196;29;20074;-75
2022/07/15 02:26:00;;;;;;;4.70;2.83;;;;;;;23.29;78.21;100880.66;4942029;29;20063;-74
2022/07/15 02:28:45;;;;;;;3.30;2.63;;;;;;;23.03;80.06;100879.69;4958152;29;20366;-75
2022/07/15 02:31:31;;;;;;;4.20;2.58;;;;;;;23.17;79.71;100873.41;4958311;29;20027;-74
2022/07/15 02:34:17;;;;;;;3.35;2.60;;;;;;;23.27;78.72;100878.09;4957859;28;20042;-75
2022/07/15 02:37:03;;;;;;;4.25;2.60;;;;;;;23.14;78.85;100877.16;4958320;29;20153;-74
2022/07/15 02:39:48;;;;;;;3.33;2.70;;;;;;;23.14;78.43;100871.81;4957589;29;20041;-75
2022/07/15 02:42:34;;;;;;;4.90;2.78;;;;;;;23.08;79.31;100869.53;4958097;29;20027;-74
2022/07/15 02:45:22;;;;;;;8.70;2.78;;;;;;;23.08;79.57;100869.53;4958437;28;20027;-75
2022/07/15 02:48:08;;;;;;;4.50;2.80;;;;;;;23.46;77.20;100867.00;4956179;28;20374;-75
2022/07/15 02:50:54;;;;;;;3.13;2.55;;;;;;;23.12;79.37;100864.84;4957832;29;20030;-74
2022/07/15 02:53:40;;;;;;;4.10;3.17;;;;;;;23.43;77.13;100869.91;4956814;28;20039;-76
2022/07/15 02:56:26;;;;;;;5.65;3.33;;;;;;;23.47;76.83;100866.06;4957561;29;20073;-75
2022/07/15 02:59:12;;;;;;;8.23;2.97;;;;;;;23.32;77.67;100869.75;4957627;29;20039;-74
2022/07/15 03:01:58;;;;;;;6.30;3.10;;;;;;;23.17;79.17;100868.94;4958075;29;20031;-74
2022/07/15 03:04:44;;;;;;;6.80;2.95;;;;;;;23.33;77.88;100872.34;4956842;28;20031;-75
2022/07/15 03:07:30;;;;;;;6.35;2.67;;;;;;;23.32;78.38;100875.94;4957310;29;20042;-74
2022/07/15 03:10:16;;;;;;;8.27;2.70;;;;;;;23.21;78.48;100872.28;4956832;29;20430;-74
2022/07/15 03:13:02;;;;;;;7.93;2.90;;;;;;;22.99;80.78;100874.66;4957005;29;20035;-73
2022/07/15 03:15:48;;;;;;;6.22;2.85;;;;;;;23.02;81.44;100866.41;4957382;29;20410;-76
2022/07/15 03:18:34;;;;;;;5.28;2.72;;;;;;;23.19;80.44;100876.88;4958008;29;20579;-75
2022/07/15 03:21:21;;;;;;;4.65;2.80;;;;;;;23.01;80.55;100878.06;4957896;29;20035;-75
2022/07/15 03:24:07;;;;;;;4.70;2.85;;;;;;;23.01;81.62;100878.06;4956537;28;20051;-75
2022/07/15 03:26:53;;;;;;;5.20;2.67;;;;;;;23.08;80.41;100880.22;4955903;29;20359;-74
2022/07/15 03:29:39;;;;;;;3.15;2.60;;;;;;;23.27;79.31;100879.91;4957120;29;20462;-74
2022/07/15 03:32:24;;;;;;;4.47;2.65;;;;;;;23.05;81.22;100882.25;4957431;29;20469;-74
2022/07/15 03:35:10;;;;;;;6.35;3.15;;;;;;;22.82;82.30;100878.41;4942945;29;20023;-75
2022/07/15 03:37:56;;;;;;;6.88;2.80;;;;;;;23.12;81.85;100881.72;4956529;29;20038;-75
2022/07/15 03:40:42;;;;;;;6.22;3.38;;;;;;;23.09;82.30;100879.28;4956433;29;20047;-74
2022/07/15 03:43:30;;;;;;;6.07;2.50;;;;;;;23.06;81.86;100870.59;4956905;28;20031;-74
2022/07/15 03:46:16;;;;;;;4.35;2.67;;;;;;;22.60;84.63;100875.44;4956255;29;20027;-75
2022/07/15 03:49:02;;;;;;;6.32;3.60;;;;;;;22.88;84.81;100879.84;4956485;29;20033;-74
2022/07/15 03:51:48;;;;;;;9.38;4.85;;;;;;;22.51;86.29;100872.50;4943637;29;20182;-74
2022/07/15 03:54:34;;;;;;;5.72;3.25;;;;;;;22.82;84.47;100872.22;4956020;28;20097;-74
2022/07/15 03:57:20;;;;;;;5.72;3.10;;;;;;;22.85;86.11;100877.34;4956419;29;20085;-74
2022/07/15 04:00:06;;;;;;;5.68;2.85;;;;;;;23.18;82.93;100869.78;4956278;28;20058;-75
2022/07/15 04:02:52;;;;;;;10.05;5.30;;;;;;;23.28;82.47;100873.59;4929697;29;20465;-74
2022/07/15 04:05:38;;;;;;;7.43;4.63;;;;;;;23.23;82.75;100873.06;4956493;29;20031;-75
2022/07/15 04:08:25;;;;;;;7.68;3.35;;;;;;;23.46;81.35;100863.47;4956078;29;20485;-74
2022/07/15 04:11:12;;;;;;;7.18;3.25;;;;;;;23.54;80.40;100871.84;4956599;29;20118;-76
2022/07/15 04:13:58;;;;;;;7.00;3.55;;;;;;;23.85;77.30;100866.06;4955624;28;20087;-75
2022/07/15 04:16:44;;;;;;;7.78;3.20;;;;;;;23.92;76.86;100873.63;4956506;29;20525;-75
2022/07/15 04:19:30;;;;;;;11.48;4.93;;;;;;;23.98;76.43;100883.88;4955809;29;20031;-74
2022/07/15 04:22:16;;;;;;;10.82;4.72;;;;;;;23.84;77.78;100885.78;4955824;29;20053;-74
2022/07/15 04:25:02;;;;;;;7.25;4.00;;;;;;;23.76;78.87;100882.78;4956318;28;20438;-74
2022/07/15 04:27:48;;;;;;;10.52;3.78;;;;;;;23.77;79.39;100881.78;4955528;29;20070;-75
2022/07/15 04:30:34;;;;;;;5.90;2.80;;;;;;;23.81;78.38;100876.13;4955853;29;20031;-74
2022/07/15 04:33:20;;;;;;;9.77;3.08;;;;;;;23.56;81.44;100878.78;4956059;28;20027;-74
2022/07/15 04:36:06;;;;;;;8.20;3.20;;;;;;;24.11;78.06;100886.56;4955744;29;20357;-74
2022/07/15 04:38:52;;;;;;;12.00;2.90;;;;;;;24.12;77.25;100881.09;4956816;29;20042;-75
2022/07/15 04:41:38;;;;;;;10.15;3.30;;;;;;;24.09;77.37;100875.97;4955533;29;20031;-74
2022/07/15 04:44:23;;;;;;;9.50;3.40;;;;;;;24.12;78.03;100881.09;4955693;28;20042;-74
2022/07/15 04:47:09;;;;;;;5.00;2.90;;;;;;;24.28;77.89;100881.72;4956024;29;20107;-74
2022/07/15 04:52:59;;;;;;;5.68;2.72;;;;;;;24.25;76.69;100875.72;4955288;29;20086;-73
2022/07/15 04:55:46;;;;;;;5.95;3.03;;;;;;;23.96;78.71;100887.63;4955843;29;20045;-75
2022/07/15 04:58:32;;;;;;;9.07;3.28;;;;;;;24.69;75.93;100876.06;4955599;29;20038;-74
2022/07/15 05:01:17;;;;;;;9.60;3.30;;;;;;;24.53;75.70;100867.41;4956156;29;20125;-74
2022/07/15 05:04:03;;;;;;;7.90;2.72;;;;;;;24.58;75.81;100865.25;4956293;28;20118;-74
2022/07/15 05:06:49;;;;;;;3.85;2.80;;;;;;;24.94;74.71;100868.81;4955976;29;20035;-74
2022/07/15 05:09:35;;;;;;;21.10;14.75;;;;;;;25.10;73.22;100865.81;4955393;29;20032;-75
2022/07/15 05:12:21;;;;;;;14.15;4.95;;;;;;;25.11;73.80;100872.91;4957717;28;20118;-76
2022/07/15 05:15:07;;;;;;;10.23;3.05;;;;;;;25.13;72.22;100870.97;4959163;28;20376;-74
2022/07/15 05:17:52;;;;;;;8.93;3.72;;;;;;;25.26;70.59;100882.47;4959111;29;20023;-73
2022/07/15 05:20:38;;;;;;;14.00;7.22;;;;;;;25.30;71.59;100878.63;4959640;29;20028;-74
2022/07/15 05:23:24;;;;;;;9.27;3.50;;;;;;;25.11;73.11;100878.28;4958772;28;20035;-74
2022/07/15 05:26:11;;;;;;;8.63;3.45;;;;;;;24.93;75.12;100885.00;4959467;29;20066;-74
2022/07/15 05:28:56;;;;;;;10.57;3.45;;;;;;;25.38;73.40;100881.56;4958839;29;20023;-75
2022/07/15 05:31:43;;;;;;;11.60;3.60;;;;;;;25.40;73.72;100887.69;4959454;29;20077;-74
2022/07/15 05:34:28;;;;;;;9.38;3.38;;;;;;;25.58;73.13;100883.59;4958270;28;20449;-74
2022/07/15 05:37:14;;;;;;;10.45;3.30;;;;;;;25.47;75.70;100887.09;4962848;29;20035;-73
2022/07/15 05:40:00;;;;;;;5.15;3.13;;;;;;;25.44;76.62;100883.81;4961640;29;20031;-75
2022/07/15 05:42:46;;;;;;;11.88;3.50;;;;;;;25.85;75.86;100890.41;4960466;29;20027;-74
2022/07/15 05:45:32;;;;;;;7.28;3.20;;;;;;;25.66;77.65;100879.38;4958747;29;20026;-74
2022/07/15 05:48:18;;;;;;;11.20;3.58;;;;;;;25.71;77.79;100876.31;4958856;29;20039;-74
2022/07/15 05:51:03;;;;;;;13.57;3.30;;;;;;;25.97;77.75;100880.56;4958353;29;20031;-75
2022/07/15 05:53:49;;;;;;;9.30;3.30;;;;;;;26.15;75.92;100874.59;4958890;28;20027;-75
2022/07/15 05:56:35;;;;;;;6.28;3.25;;;;;;;26.29;75.88;100881.56;4959480;29;20024;-74
2022/07/15 05:59:21;;;;;;;8.75;3.33;;;;;;;26.27;76.22;100878.97;4958439;29;20043;-75
2022/07/15 06:02:06;;;;;;;11.27;3.20;;;;;;;26.34;75.89;100879.34;4959491;29;20073;-75
2022/07/15 06:04:52;;;;;;;7.45;3.05;;;;;;;26.48;73.93;100876.41;4958218;28;20454;-75
2022/07/15 06:07:38;;;;;;;10.18;3.08;;;;;;;26.57;75.87;100881.88;4959144;29;20031;-74
2022/07/15 06:10:24;;;;;;;10.95;3.13;;;;;;;26.38;78.62;100886.19;4958057;29;20469;-74
2022/07/15 06:13:10;;;;;;;7.72;2.80;;;;;;;26.37;74.86;100877.25;4958257;28;20031;-75
2022/07/15 06:15:56;;;;;;;6.00;3.55;;;;;;;26.44;75.85;100880.34;4959707;28;20067;-75
2022/07/15 06:18:42;;;;;;;10.63;2.70;;;;;;;26.47;75.41;100874.69;4945392;29;20042;-74
2022/07/15 06:21:27;;;;;;;4.35;2.72;;;;;;;26.60;74.94;100876.28;4960922;29;20027;-74
2022/07/15 06:24:13;;;;;;;4.15;2.92;;;;;;;26.77;75.36;100878.47;4962021;28;20082;-75
2022/07/15 06:26:59;;;;;;;6.00;2.78;;;;;;;26.84;75.89;100873.47;4960389;29;20526;-74
2022/07/15 06:29:45;;;;;;;5.32;2.70;;;;;;;27.19;73.70;100874.06;4961884;29;20342;-74
2022/07/15 06:32:30;;;;;;;6.15;2.95;;;;;;;26.92;73.05;100866.44;4960506;29;20027;-76
2022/07/15 06:35:16;;;;;;;4.47;2.63;;;;;;;27.33;71.35;100876.50;4961462;28;20466;-73
2022/07/15 06:38:02;;;;;;;3.75;2.50;;;;;;;27.47;69.76;100881.53;4963688;29;20035;-75
2022/07/15 06:40:48;;;;;;;8.15;2.70;;;;;;;27.58;66.62;100880.63;4950016;28;20023;-75
2022/07/15 06:43:33;;;;;;;4.05;2.58;;;;;;;27.40;68.49;100883.91;4962775;28;20019;-74
2022/07/15 06:46:20;;;;;;;9.63;2.47;;;;;;;27.32;67.13;100880.16;4959804;29;20059;-75
2022/07/15 06:49:05;;;;;;;4.30;2.53;;;;;;;27.68;66.40;100886.97;4958997;29;20051;-75
2022/07/15 06:51:51;;;;;;;4.88;2.55;;;;;;;27.83;64.21;100883.81;4958532;29;20352;-75
2022/07/15 06:54:37;;;;;;;4.22;2.72;;;;;;;27.90;64.61;100885.00;4958036;28;20374;-76
2022/07/15 06:57:23;;;;;;;6.30;2.50;;;;;;;27.77;64.87;100888.84;4958714;29;20045;-76
2022/07/15 07:00:11;;;;;;;3.45;2.53;;;;;;;27.77;67.30;100886.16;4958216;29;20054;-75
2022/07/15 07:02:57;;;;;;;4.32;3.20;;;;;;;28.02;65.02;100891.16;4957844;29;20406;-75
2022/07/15 07:05:43;;;;;;;4.45;2.88;;;;;;;28.25;65.74;100892.72;4944163;29;20023;-74
2022/07/15 07:08:28;;;;;;;7.13;3.08;;;;;;;28.59;62.39;100896.84;4958458;29;20042;-75
2022/07/15 07:11:17;;;;;;;5.25;3.50;;;;;;;28.58;62.33;100895.13;4946037;29;20046;-75
2022/07/15 07:14:03;;;;;;;3.38;3.08;;;;;;;28.84;60.65;100894.50;4958577;28;20481;-74
2022/07/15 07:16:48;;;;;;;4.38;3.30;;;;;;;28.97;61.38;100892.38;4957140;29;20397;-75
2022/07/15 07:19:34;;;;;;;4.25;3.17;;;;;;;28.68;61.63;100896.88;4957965;29;20035;-75
2022/07/15 07:22:20;;;;;;;6.68;3.22;;;;;;;28.42;64.53;100901.06;4957087;29;20046;-76
2022/07/15 07:25:07;;;;;;;7.25;3.10;;;;;;;28.49;65.68;100898.66;4957422;28;20059;-75
2022/07/15 07:27:52;;;;;;;4.47;3.33;;;;;;;29.12;60.98;100896.44;4957404;29;20051;-76
2022/07/15 07:30:38;;;;;;;6.90;3.65;;;;;;;29.45;58.93;100896.00;4957562;29;20027;-75
2022/07/15 07:33:24;;;;;;;3.70;2.90;;;;;;;29.29;56.51;100895.72;4957209;28;20031;-75
2022/07/15 07:36:09;;;;;;;5.30;3.40;;;;;;;28.90;58.17;100893.09;4957019;29;20034;-76
2022/07/15 07:38:55;;;;;;;4.82;3.17;;;;;;;29.18;56.66;100898.59;4957258;29;20023;-75
2022/07/15 07:41:41;;;;;;;5.93;3.13;;;;;;;29.35;53.72;100892.47;4956648;29;20457;-75
2022/07/15 07:44:27;;;;;;;5.38;3.15;;;;;;;30.17;53.44;100894.53;4957355;28;20103;-75
2022/07/15 07:47:13;;;;;;;12.48;3.58;;;;;;;29.90;53.73;100897.13;4956514;29;20027;-76
2022/07/15 07:49:58;;;;;;;6.75;3.15;;;;;;;29.81;55.47;100895.31;4957013;29;20039;-75
2022/07/15 07:52:44;;;;;;;9.85;6.90;;;;;;;30.90;53.08;100890.94;4956597;29;20102;-75
2022/07/15 07:55:30;;;;;;;6.22;4.00;;;;;;;30.54;53.88;100892.66;4941719;29;20031;-75
2022/07/15 07:58:16;;;;;;;4.75;2.90;;;;;;;31.13;51.66;100889.47;4956362;29;20393;-76
2022/07/15 08:01:02;;;;;;;4.55;2.75;;;;;;;31.50;50.56;100895.63;4955769;29;20035;-75
2022/07/15 08:03:50;;;;;;;3.95;2.95;;;;;;;30.86;52.73;100887.69;4943132;28;20028;-75
2022/07/15 08:06:38;;;;;;;7.15;2.78;;;;;;;31.82;49.53;100889.66;4942014;29;20038;-75
2022/07/15 08:09:24;;;;;;;6.88;2.88;;;;;;;31.34;49.20;100885.50;4956634;29;20062;-75
2022/07/15 08:12:09;;;;;;;6.75;4.72;;;;;;;32.04;48.93;100886.41;4956295;29;20038;-76
2022/07/15 08:14:55;;;;;;;10.13;3.00;;;;;;;32.45;46.66;100878.38;4956607;28;20504;-75
2022/07/15 08:17:41;;;;;;;6.50;3.40;;;;;;;32.47;46.67;100884.50;4956486;29;20039;-76
2022/07/15 08:20:29;;;;;;;7.35;3.70;;;;;;;33.04;44.24;100885.56;4956438;29;20425;-76
2022/07/15 08:23:20;;;;;;;4.65;3.13;;;;;;;33.54;43.42;100887.19;4955158;28;20035;-76
2022/07/15 08:26:07;;;;;;;6.15;2.85;;;;;;;32.59;44.99;100871.50;4956540;28;20051;-76
2022/07/15 08:28:54;;;;;;;7.03;4.93;;;;;;;33.57;43.05;100878.69;4955395;29;20469;-75
2022/07/15 08:31:40;;;;;;;6.25;2.70;;;;;;;33.47;41.30;100883.44;4956360;29;20046;-74
2022/07/15 08:34:26;;;;;;;6.13;3.47;;;;;;;34.09;40.32;100884.59;4955847;28;20529;-75
2022/07/15 08:37:13;;;;;;;4.97;2.20;;;;;;;33.98;40.46;100887.69;4943375;29;20031;-75
2022/07/15 08:39:59;;;;;;;3.15;2.60;;;;;;;33.51;39.54;100883.97;4955952;29;20027;-75
2022/07/15 08:42:46;;;;;;;6.32;2.70;;;;;;;33.83;40.26;100879.38;4943014;29;20050;-75
2022/07/15 08:45:34;;;;;;;3.38;2.22;;;;;;;33.85;39.83;100885.50;4956894;28;20074;-75
2022/07/15 08:48:26;;;;;;;4.07;2.38;;;;;;;34.57;38.62;100885.34;4959205;29;20370;-75
2022/07/15 08:51:13;;;;;;;5.30;2.70;;;;;;;34.03;38.58;100886.16;4959944;29;20403;-76
2022/07/15 08:53:59;;;;;;;4.60;2.47;;;;;;;33.97;38.25;100881.41;4959805;28;20035;-75
2022/07/15 08:56:45;;;;;;;5.85;3.58;;;;;;;33.93;38.72;100879.19;4959767;29;20023;-75
2022/07/15 08:59:32;;;;;;;7.00;5.28;;;;;;;34.54;38.13;100879.38;4959486;29;20054;-75
2022/07/15 09:02:22;;;;;;;7.55;3.10;;;;;;;34.53;37.58;100873.13;4959531;29;20039;-76
2022/07/15 09:05:21;;;;;;;5.85;2.15;;;;;;;34.96;37.50;100872.56;4959246;28;20023;-75
2022/07/15 09:08:16;;;;;;;4.18;2.50;;;;;;;34.15;38.20;100867.59;4959082;29;20039;-75
2022/07/15 09:11:02;;;;;;;3.38;2.50;;;;;;;34.83;37.46;100868.72;4959303;29;20027;-74
2022/07/15 09:13:47;;;;;;;5.78;2.78;;;;;;;35.00;36.41;100860.28;4959281;28;20032;-76
2022/07/15 09:16:33;;;;;;;7.32;3.22;;;;;;;34.84;36.93;100865.00;4959346;29;20038;-75
2022/07/15 09:19:19;;;;;;;11.02;8.07;;;;;;;34.17;37.62;100857.38;4959718;29;20098;-74
2022/07/15 09:22:05;;;;;;;7.28;3.65;;;;;;;34.72;36.70;100850.88;4959571;29;20468;-76
2022/07/15 09:25:05;;;;;;;9.27;3.50;;;;;;;35.00;36.78;100846.66;4959526;28;20054;-76
2022/07/15 09:27:51;;;;;;;6.55;3.88;;;;;;;34.45;36.74;100847.78;4958671;29;20055;-76
2022/07/15 09:33:45;;;;;;;5.18;3.75;;;;;;;34.59;35.89;100837.00;4959190;28;20357;-75
2022/07/15 09:36:32;;;;;;;7.45;3.70;;;;;;;34.42;36.10;100842.69;4959202;28;20351;-75
2022/07/15 09:39:19;;;;;;;9.80;3.97;;;;;;;34.51;36.58;100842.50;4959819;29;20084;-75
2022/07/15 09:42:09;;;;;;;4.32;3.38;;;;;;;34.89;36.00;100825.31;4958656;29;20030;-76
2022/07/15 09:44:55;;;;;;;5.97;3.30;;;;;;;34.87;35.41;100824.63;4958460;28;20378;-75
2022/07/15 09:47:42;;;;;;;6.50;3.47;;;;;;;34.40;35.37;100818.38;4959215;29;20410;-76
2022/07/15 09:50:36;;;;;;;4.93;4.00;;;;;;;35.32;34.01;100822.97;4958650;29;20442;-76
2022/07/15 09:53:22;;;;;;;8.80;6.00;;;;;;;35.54;34.17;100816.63;4959040;28;20031;-75
2022/07/15 09:56:10;;;;;;;8.38;3.50;;;;;;;35.73;34.67;100814.22;4959724;29;20027;-76
2022/07/15 09:58:56;;;;;;;5.85;4.00;;;;;;;35.12;34.84;100820.69;4959066;29;20035;-75
2022/07/15 10:01:43;;;;;;;6.30;2.80;;;;;;;35.44;33.62;100810.59;4959148;29;20114;-75
2022/07/15 10:04:30;;;;;;;8.35;2.92;;;;;;;35.35;33.18;100807.09;4958860;28;20430;-76
2022/07/15 10:07:18;;;;;;;4.35;2.70;;;;;;;34.87;33.90;100801.97;4959180;29;20035;-75
2022/07/15 10:10:05;;;;;;;28.17;25.30;;;;;;;35.27;33.85;100798.13;4958857;29;20370;-75
2022/07/15 10:13:09;;;;;;;6.22;4.72;;;;;;;34.58;33.34;100789.03;4958915;29;20373;-75
2022/07/15 10:16:16;;;;;;;5.35;2.38;;;;;;;34.88;32.99;100792.81;4958500;29;20027;-75
2022/07/15 10:19:21;;;;;;;8.13;2.70;;;;;;;34.98;34.02;100790.66;4958487;29;20080;-75
2022/07/15 10:22:37;;;;;;;4.47;3.40;;;;;;;35.19;33.00;100786.25;4958198;29;20019;-76
2022/07/15 10:26:01;;;;;;;11.10;9.30;;;;;;;35.03;33.53;100778.19;4958354;28;20110;-75
2022/07/15 10:28:56;;;;;;;4.78;3.05;;;;;;;34.98;32.58;100777.91;4945605;29;20058;-76
2022/07/15 10:31:44;;;;;;;4.28;2.63;;;;;;;35.11;33.11;100769.09;4944820;29;20027;-76
2022/07/15 10:34:35;;;;;;;4.43;2.55;;;;;;;35.60;33.07;100761.38;4957743;28;20019;-76
2022/07/15 10:37:20;;;;;;;23.70;21.23;;;;;;;35.89;32.80;100762.25;4957526;29;20106;-76
2022/07/15 10:40:07;;;;;;;5.28;3.35;;;;;;;36.03;31.50;100766.84;4958413;29;20027;-75
2022/07/15 10:42:58;;;;;;;8.10;2.85;;;;;;;34.92;32.94;100761.44;4958741;29;20417;-75
2022/07/15 10:46:04;;;;;;;5.38;3.00;;;;;;;35.61;31.86;100757.59;4958416;29;20031;-76
2022/07/15 10:48:50;;;;;;;4.50;2.78;;;;;;;36.05;32.04;100753.88;4958683;29;20027;-75
2022/07/15 10:51:35;;;;;;;7.07;3.60;;;;;;;35.86;31.65;100751.72;4957573;29;20092;-75
2022/07/15 10:54:33;;;;;;;7.35;3.42;;;;;;;35.97;31.21;100756.72;4956556;29;20055;-75
2022/07/15 10:57:20;;;;;;;6.13;3.65;;;;;;;35.57;31.27;100754.41;4956707;29;20023;-75
2022/07/15 11:00:25;;;;;;;5.25;3.50;;;;;;;35.96;31.74;100749.53;4957160;29;20369;-76
2022/07/15 11:03:17;;;;;;;4.82;3.60;;;;;;;36.16;30.75;100747.91;4957194;28;20314;-76
2022/07/15 11:06:05;;;;;;;5.63;4.30;;;;;;;36.37;29.97;100736.25;4957593;29;20027;-75
2022/07/15 11:08:55;;;;;;;6.30;3.72;;;;;;;36.72;30.01;100751.81;4956599;28;20067;-75
2022/07/15 11:11:43;;;;;;;11.55;6.80;;;;;;;36.16;29.79;100745.19;4956967;29;20039;-75
2022/07/15 11:14:55;;;;;;;4.53;3.90;;;;;;;36.94;28.96;100745.31;4957163;28;20442;-76
2022/07/15 11:17:46;;;;;;;10.23;4.30;;;;;;;36.41;29.87;100743.88;4957205;29;20386;-76
2022/07/15 11:20:34;;;;;;;6.28;3.70;;;;;;;35.40;30.78;100744.72;4957088;29;20039;-76
2022/07/15 11:23:29;;;;;;;5.25;4.10;;;;;;;35.18;31.85;100737.38;4956247;28;20031;-75
2022/07/15 11:26:16;;;;;;;7.10;3.92;;;;;;;34.85;31.42;100736.81;4957198;29;20066;-75
2022/07/15 11:29:02;;;;;;;7.05;4.22;;;;;;;34.21;31.98;100734.44;4957127;29;20031;-75
2022/07/15 11:31:48;;;;;;;7.57;4.60;;;;;;;34.41;31.78;100735.72;4957425;29;20109;-75
2022/07/15 11:34:42;;;;;;;7.68;4.22;;;;;;;34.52;31.70;100727.13;4957185;28;20481;-75
2022/07/15 11:37:31;;;;;;;7.53;3.33;;;;;;;35.05;31.47;100731.72;4956973;29;20035;-76
2022/07/15 11:46:31;;;;;;;7.82;6.38;;;;;;;36.03;30.46;100725.94;4956607;29;20464;-76
2022/07/15 11:49:39;;;;;;;7.10;3.42;;;;;;;36.26;29.93;100723.09;4956549;29;20062;-75
2022/07/15 11:52:26;;;;;;;10.70;3.22;;;;;;;36.63;29.20;100721.00;4955738;29;20406;-75
2022/07/15 11:55:11;;;;;;;7.03;3.05;;;;;;;36.72;29.48;100713.59;4956931;28;20037;-76
2022/07/15 11:57:57;;;;;;;6.60;2.88;;;;;;;36.65;30.20;100708.03;4956129;29;20035;-75
2022/07/15 12:00:48;;;;;;;5.57;2.50;;;;;;;36.62;29.87;100705.69;4942719;29;20466;-76
2022/07/15 12:03:43;;;;;;;6.90;2.70;;;;;;;36.10;30.03;100707.78;4956162;28;20035;-75
2022/07/15 12:06:31;;;;;;;3.70;2.50;;;;;;;36.71;29.35;100703.66;4956156;29;20465;-75
2022/07/15 12:09:18;;;;;;;5.60;2.20;;;;;;;36.08;29.37;100698.09;4956717;29;20421;-75
2022/07/15 12:12:04;;;;;;;2.78;2.00;;;;;;;35.54;29.20;100702.97;4955789;29;20440;-75
2022/07/15 12:14:51;;;;;;;5.35;2.70;;;;;;;35.87;29.56;100696.13;4956067;28;20027;-76
2022/07/15 12:17:37;;;;;;;5.07;2.47;;;;;;;36.38;29.43;100692.41;4942566;29;20169;-76
2022/07/15 12:20:23;;;;;;;6.95;2.92;;;;;;;35.67;29.92;100691.44;4955625;28;20035;-76
2022/07/15 12:23:11;;;;;;;5.32;2.63;;;;;;;36.63;28.95;100690.13;4956567;28;20027;-76
2022/07/15 12:26:03;;;;;;;6.32;2.05;;;;;;;36.73;28.94;100688.81;4956725;29;20094;-76
2022/07/15 12:28:54;;;;;;;3.95;2.70;;;;;;;36.41;29.43;100689.28;4956193;29;20031;-75
2022/07/15 12:31:41;;;;;;;10.05;5.38;;;;;;;36.33;29.81;100692.13;4956763;29;20042;-75
2022/07/15 12:34:59;;;;;;;31.85;26.33;;;;;;;37.16;29.23;100678.69;4956108;28;20042;-74
2022/07/15 12:37:49;;;;;;;7.70;3.15;;;;;;;36.29;28.93;100682.63;4943141;29;20031;-75
2022/07/15 12:40:35;;;;;;;7.55;3.60;;;;;;;36.17;28.86;100686.88;4955849;29;20035;-74
2022/07/15 12:43:41;;;;;;;9.63;3.17;;;;;;;36.21;28.37;100677.25;4955997;28;20365;-75
2022/07/15 12:46:51;;;;;;;4.97;2.40;;;;;;;36.90;27.74;100694.81;4955578;29;20422;-75
2022/07/15 12:49:51;;;;;;;3.45;2.22;;;;;;;36.69;27.81;100686.66;4955721;29;20023;-76
2022/07/15 12:52:38;;;;;;;8.82;2.45;;;;;;;36.60;27.49;100677.69;4956058;29;20370;-75
2022/07/15 12:55:27;;;;;;;5.13;2.40;;;;;;;36.58;27.63;100679.81;4956441;28;20027;-76
2022/07/15 12:58:15;;;;;;;6.82;2.38;;;;;;;36.89;28.32;100680.34;4955534;29;20410;-76
2022/07/15 13:01:12;;;;;;;7.85;2.42;;;;;;;37.04;28.28;100672.88;4956542;29;20446;-75
2022/07/15 13:03:58;;;;;;;4.05;2.42;;;;;;;36.86;28.20;100667.06;4956104;28;20485;-76
2022/07/15 13:06:43;;;;;;;4.28;2.10;;;;;;;37.02;27.94;100664.06;4956244;29;20038;-75
2022/07/15 13:09:29;;;;;;;3.45;2.20;;;;;;;36.24;28.15;100665.97;4956458;29;20024;-75
2022/07/15 13:12:15;;;;;;;5.80;2.97;;;;;;;35.83;29.46;100664.81;4955943;29;20038;-75
2022/07/15 13:15:01;;;;;;;8.55;2.40;;;;;;;36.15;28.76;100671.75;4955308;28;20031;-75